sensor_id;sensor_type;location;lat;lon;timestamp;temperature;humidity
10968;DHT22;5536;49.602;10.980;2023-07-13T00:01:04;22.60;99.90
10968;DHT22;5536;49.602;10.980;2023-07-13T00:03:32;22.50;99.90
10968;DHT22;5536;49.602;10.980;2023-07-13T00:06:02;22.50;99.90
10968;DHT22;5536;49.602;10.980;2023-07-13T00:08:31;22.50;99.90
10968;DHT22;5536;49.602;10.980;2023-07-13T00:10:59;22.50;99.90
10968;DHT22;5536;49.602;10.980;2023-07-13T00:13:26;22.50;99.90
10968;DHT22;5536;49.602;10.980;2023-07-13T00:15:53;22.30;99.90
10968;DHT22;5536;49.602;10.980;2023-07-13T00:18:21;22.30;99.90
10968;DHT22;5536;49.602;10.980;2023-07-13T00:20:48;22.30;99.90
10968;DHT22;5536;49.602;10.980;2023-07-13T00:23:16;22.20;99.90
10968;DHT22;5536;49.602;10.980;2023-07-13T00:25:44;22.20;99.90
10968;DHT22;5536;49.602;10.980;2023-07-13T00:28:11;22.10;99.90
10968;DHT22;5536;49.602;10.980;2023-07-13T00:30:38;22.10;99.90
10968;DHT22;5536;49.602;10.980;2023-07-13T00:33:05;22.10;99.90
10968;DHT22;5536;49.602;10.980;2023-07-13T00:35:33;22.10;99.90
10968;DHT22;5536;49.602;10.980;2023-07-13T00:38:00;22.10;99.90
10968;DHT22;5536;49.602;10.980;2023-07-13T00:40:29;22.00;99.90
10968;DHT22;5536;49.602;10.980;2023-07-13T00:42:57;22.00;99.90
10968;DHT22;5536;49.602;10.980;2023-07-13T00:48:34;21.80;99.90
10968;DHT22;5536;49.602;10.980;2023-07-13T00:51:02;21.80;99.90
10968;DHT22;5536;49.602;10.980;2023-07-13T00:53:32;21.70;99.90
10968;DHT22;5536;49.602;10.980;2023-07-13T00:56:03;21.70;99.90
10968;DHT22;5536;49.602;10.980;2023-07-13T00:58:30;21.60;99.90
10968;DHT22;5536;49.602;10.980;2023-07-13T01:00:57;21.70;99.90
10968;DHT22;5536;49.602;10.980;2023-07-13T01:03:24;21.60;99.90
10968;DHT22;5536;49.602;10.980;2023-07-13T01:05:51;21.60;99.90
10968;DHT22;5536;49.602;10.980;2023-07-13T01:08:20;21.60;99.90
10968;DHT22;5536;49.602;10.980;2023-07-13T01:10:54;21.50;99.90
10968;DHT22;5536;49.602;10.980;2023-07-13T01:13:22;21.50;99.90
10968;DHT22;5536;49.602;10.980;2023-07-13T01:15:51;21.40;99.90
10968;DHT22;5536;49.602;10.980;2023-07-13T01:18:21;21.40;99.90
10968;DHT22;5536;49.602;10.980;2023-07-13T01:20:52;21.30;99.90
10968;DHT22;5536;49.602;10.980;2023-07-13T01:23:20;21.30;99.90
10968;DHT22;5536;49.602;10.980;2023-07-13T01:25:47;21.30;99.90
10968;DHT22;5536;49.602;10.980;2023-07-13T01:28:14;21.20;99.90
10968;DHT22;5536;49.602;10.980;2023-07-13T01:30:43;21.20;99.90
10968;DHT22;5536;49.602;10.980;2023-07-13T01:33:12;21.10;99.90
10968;DHT22;5536;49.602;10.980;2023-07-13T01:35:39;21.10;99.90
10968;DHT22;5536;49.602;10.980;2023-07-13T01:38:08;20.90;99.90
10968;DHT22;5536;49.602;10.980;2023-07-13T01:40:36;20.80;99.90
10968;DHT22;5536;49.602;10.980;2023-07-13T01:43:03;20.60;99.90
10968;DHT22;5536;49.602;10.980;2023-07-13T01:45:31;20.60;99.90
10968;DHT22;5536;49.602;10.980;2023-07-13T01:47:58;20.60;99.90
10968;DHT22;5536;49.602;10.980;2023-07-13T01:50:25;20.60;99.90
10968;DHT22;5536;49.602;10.980;2023-07-13T01:52:52;20.60;99.90
10968;DHT22;5536;49.602;10.980;2023-07-13T01:55:20;20.60;99.90
10968;DHT22;5536;49.602;10.980;2023-07-13T01:57:48;20.60;99.90
10968;DHT22;5536;49.602;10.980;2023-07-13T02:00:15;20.50;99.90
10968;DHT22;5536;49.602;10.980;2023-07-13T02:02:42;20.50;99.90
10968;DHT22;5536;49.602;10.980;2023-07-13T02:05:09;20.40;99.90
10968;DHT22;5536;49.602;10.980;2023-07-13T02:07:37;20.40;99.90
10968;DHT22;5536;49.602;10.980;2023-07-13T02:10:04;20.40;99.90
10968;DHT22;5536;49.602;10.980;2023-07-13T02:12:33;20.30;99.90
10968;DHT22;5536;49.602;10.980;2023-07-13T02:15:00;20.30;99.90
10968;DHT22;5536;49.602;10.980;2023-07-13T02:17:27;20.30;99.90
10968;DHT22;5536;49.602;10.980;2023-07-13T02:19:54;20.30;99.90
10968;DHT22;5536;49.602;10.980;2023-07-13T02:22:22;20.30;99.90
10968;DHT22;5536;49.602;10.980;2023-07-13T02:24:49;20.30;99.90
10968;DHT22;5536;49.602;10.980;2023-07-13T02:27:16;20.30;99.90
10968;DHT22;5536;49.602;10.980;2023-07-13T02:29:44;20.30;99.90
10968;DHT22;5536;49.602;10.980;2023-07-13T02:32:11;20.20;99.90
10968;DHT22;5536;49.602;10.980;2023-07-13T02:34:38;20.20;99.90
10968;DHT22;5536;49.602;10.980;2023-07-13T02:37:05;20.10;99.90
10968;DHT22;5536;49.602;10.980;2023-07-13T02:39:32;20.10;99.90
10968;DHT22;5536;49.602;10.980;2023-07-13T02:41:59;20.00;99.90
10968;DHT22;5536;49.602;10.980;2023-07-13T02:44:26;19.90;99.90
10968;DHT22;5536;49.602;10.980;2023-07-13T02:46:55;19.80;99.90
10968;DHT22;5536;49.602;10.980;2023-07-13T02:49:22;19.80;99.90
10968;DHT22;5536;49.602;10.980;2023-07-13T02:51:49;19.80;99.90
10968;DHT22;5536;49.602;10.980;2023-07-13T02:54:15;19.70;99.90
10968;DHT22;5536;49.602;10.980;2023-07-13T02:56:42;19.80;99.90
10968;DHT22;5536;49.602;10.980;2023-07-13T02:59:10;19.60;99.90
10968;DHT22;5536;49.602;10.980;2023-07-13T03:01:37;19.70;99.90
10968;DHT22;5536;49.602;10.980;2023-07-13T03:04:06;19.60;99.90
10968;DHT22;5536;49.602;10.980;2023-07-13T03:06:33;19.60;99.90
10968;DHT22;5536;49.602;10.980;2023-07-13T03:09:00;19.50;99.90
10968;DHT22;5536;49.602;10.980;2023-07-13T03:11:27;19.30;99.90
10968;DHT22;5536;49.602;10.980;2023-07-13T03:13:55;19.40;99.90
10968;DHT22;5536;49.602;10.980;2023-07-13T03:16:22;19.40;99.90
10968;DHT22;5536;49.602;10.980;2023-07-13T03:18:49;19.40;99.90
10968;DHT22;5536;49.602;10.980;2023-07-13T03:21:17;19.40;99.90
10968;DHT22;5536;49.602;10.980;2023-07-13T03:23:44;19.40;99.90
10968;DHT22;5536;49.602;10.980;2023-07-13T03:26:15;19.20;99.90
10968;DHT22;5536;49.602;10.980;2023-07-13T03:28:42;19.20;99.90
10968;DHT22;5536;49.602;10.980;2023-07-13T03:31:11;19.10;99.90
10968;DHT22;5536;49.602;10.980;2023-07-13T03:33:39;19.20;99.90
10968;DHT22;5536;49.602;10.980;2023-07-13T03:36:07;19.10;99.90
10968;DHT22;5536;49.602;10.980;2023-07-13T03:38:35;19.20;99.90
10968;DHT22;5536;49.602;10.980;2023-07-13T03:41:02;19.10;99.90
10968;DHT22;5536;49.602;10.980;2023-07-13T03:43:29;18.90;99.90
10968;DHT22;5536;49.602;10.980;2023-07-13T03:45:56;18.90;99.90
10968;DHT22;5536;49.602;10.980;2023-07-13T03:48:23;18.80;99.90
10968;DHT22;5536;49.602;10.980;2023-07-13T03:50:50;18.80;99.90
10968;DHT22;5536;49.602;10.980;2023-07-13T03:53:16;18.90;99.90
10968;DHT22;5536;49.602;10.980;2023-07-13T03:55:45;18.90;99.90
10968;DHT22;5536;49.602;10.980;2023-07-13T03:58:29;18.80;99.90
10968;DHT22;5536;49.602;10.980;2023-07-13T04:00:57;18.80;99.90
10968;DHT22;5536;49.602;10.980;2023-07-13T04:03:24;18.80;99.90
10968;DHT22;5536;49.602;10.980;2023-07-13T04:05:51;18.70;99.90
10968;DHT22;5536;49.602;10.980;2023-07-13T04:08:17;18.70;99.90
10968;DHT22;5536;49.602;10.980;2023-07-13T04:10:46;18.70;99.90
10968;DHT22;5536;49.602;10.980;2023-07-13T04:13:13;18.70;99.90
10968;DHT22;5536;49.602;10.980;2023-07-13T04:15:40;18.70;99.90
10968;DHT22;5536;49.602;10.980;2023-07-13T04:18:07;18.70;99.90
10968;DHT22;5536;49.602;10.980;2023-07-13T04:20:34;18.70;99.90
10968;DHT22;5536;49.602;10.980;2023-07-13T04:23:02;18.70;99.90
10968;DHT22;5536;49.602;10.980;2023-07-13T04:25:29;18.70;99.90
10968;DHT22;5536;49.602;10.980;2023-07-13T04:27:57;18.70;99.90
10968;DHT22;5536;49.602;10.980;2023-07-13T04:30:24;18.60;99.90
10968;DHT22;5536;49.602;10.980;2023-07-13T04:32:52;18.70;99.90
10968;DHT22;5536;49.602;10.980;2023-07-13T04:35:20;18.70;99.90
10968;DHT22;5536;49.602;10.980;2023-07-13T04:37:47;18.70;99.90
10968;DHT22;5536;49.602;10.980;2023-07-13T04:40:15;18.70;99.90
10968;DHT22;5536;49.602;10.980;2023-07-13T04:42:42;18.70;99.90
10968;DHT22;5536;49.602;10.980;2023-07-13T04:45:11;18.70;99.90
10968;DHT22;5536;49.602;10.980;2023-07-13T04:47:39;18.70;99.90
10968;DHT22;5536;49.602;10.980;2023-07-13T04:50:07;18.70;99.90
10968;DHT22;5536;49.602;10.980;2023-07-13T04:52:34;18.70;99.90
10968;DHT22;5536;49.602;10.980;2023-07-13T04:55:01;18.70;99.90
10968;DHT22;5536;49.602;10.980;2023-07-13T04:57:28;18.80;99.90
10968;DHT22;5536;49.602;10.980;2023-07-13T04:59:55;18.80;99.90
10968;DHT22;5536;49.602;10.980;2023-07-13T05:02:23;18.90;99.90
10968;DHT22;5536;49.602;10.980;2023-07-13T05:04:50;19.00;99.90
10968;DHT22;5536;49.602;10.980;2023-07-13T05:07:17;19.00;99.90
10968;DHT22;5536;49.602;10.980;2023-07-13T05:09:44;19.10;99.90
10968;DHT22;5536;49.602;10.980;2023-07-13T05:12:11;19.20;99.90
10968;DHT22;5536;49.602;10.980;2023-07-13T05:14:37;19.30;99.90
10968;DHT22;5536;49.602;10.980;2023-07-13T05:17:05;19.40;99.90
10968;DHT22;5536;49.602;10.980;2023-07-13T05:19:33;19.50;99.90
10968;DHT22;5536;49.602;10.980;2023-07-13T05:22:00;19.60;99.90
10968;DHT22;5536;49.602;10.980;2023-07-13T05:24:28;19.70;99.90
10968;DHT22;5536;49.602;10.980;2023-07-13T05:26:55;19.70;99.90
10968;DHT22;5536;49.602;10.980;2023-07-13T05:29:22;19.70;99.90
10968;DHT22;5536;49.602;10.980;2023-07-13T05:31:49;19.70;99.90
10968;DHT22;5536;49.602;10.980;2023-07-13T05:34:16;19.70;99.90
10968;DHT22;5536;49.602;10.980;2023-07-13T05:36:44;19.80;99.90
10968;DHT22;5536;49.602;10.980;2023-07-13T05:39:11;19.80;99.90
10968;DHT22;5536;49.602;10.980;2023-07-13T05:41:38;19.80;99.90
10968;DHT22;5536;49.602;10.980;2023-07-13T05:44:05;19.80;99.90
10968;DHT22;5536;49.602;10.980;2023-07-13T05:46:32;19.90;99.90
10968;DHT22;5536;49.602;10.980;2023-07-13T05:48:59;19.90;99.90
10968;DHT22;5536;49.602;10.980;2023-07-13T05:51:26;20.00;99.90
10968;DHT22;5536;49.602;10.980;2023-07-13T05:53:54;20.00;99.90
10968;DHT22;5536;49.602;10.980;2023-07-13T05:56:21;19.90;99.90
10968;DHT22;5536;49.602;10.980;2023-07-13T05:58:49;19.90;99.90
10968;DHT22;5536;49.602;10.980;2023-07-13T06:01:16;19.90;99.90
10968;DHT22;5536;49.602;10.980;2023-07-13T06:03:44;19.90;99.90
10968;DHT22;5536;49.602;10.980;2023-07-13T06:06:11;19.90;99.90
10968;DHT22;5536;49.602;10.980;2023-07-13T06:08:38;19.90;99.90
10968;DHT22;5536;49.602;10.980;2023-07-13T06:11:09;19.80;99.90
10968;DHT22;5536;49.602;10.980;2023-07-13T06:13:36;19.70;99.90
10968;DHT22;5536;49.602;10.980;2023-07-13T06:16:04;19.70;99.90
10968;DHT22;5536;49.602;10.980;2023-07-13T06:18:31;19.90;99.90
10968;DHT22;5536;49.602;10.980;2023-07-13T06:20:58;20.00;99.90
10968;DHT22;5536;49.602;10.980;2023-07-13T06:23:25;20.10;99.90
10968;DHT22;5536;49.602;10.980;2023-07-13T06:25:52;20.30;99.90
10968;DHT22;5536;49.602;10.980;2023-07-13T06:28:21;20.50;99.90
10968;DHT22;5536;49.602;10.980;2023-07-13T06:30:48;20.60;99.90
10968;DHT22;5536;49.602;10.980;2023-07-13T06:33:14;20.60;99.90
10968;DHT22;5536;49.602;10.980;2023-07-13T06:35:42;20.50;99.90
10968;DHT22;5536;49.602;10.980;2023-07-13T06:38:09;20.50;99.90
10968;DHT22;5536;49.602;10.980;2023-07-13T06:40:36;20.70;99.90
10968;DHT22;5536;49.602;10.980;2023-07-13T06:43:03;20.70;99.90
10968;DHT22;5536;49.602;10.980;2023-07-13T06:45:35;20.60;99.90
10968;DHT22;5536;49.602;10.980;2023-07-13T06:48:02;20.60;99.90
10968;DHT22;5536;49.602;10.980;2023-07-13T06:50:29;20.70;99.90
10968;DHT22;5536;49.602;10.980;2023-07-13T06:52:56;20.80;99.90
10968;DHT22;5536;49.602;10.980;2023-07-13T06:55:25;20.80;99.90
10968;DHT22;5536;49.602;10.980;2023-07-13T06:57:52;20.90;99.90
10968;DHT22;5536;49.602;10.980;2023-07-13T07:00:19;21.00;99.90
10968;DHT22;5536;49.602;10.980;2023-07-13T07:02:47;21.10;99.90
10968;DHT22;5536;49.602;10.980;2023-07-13T07:05:14;21.10;99.90
10968;DHT22;5536;49.602;10.980;2023-07-13T07:07:41;21.20;99.90
10968;DHT22;5536;49.602;10.980;2023-07-13T07:10:08;21.40;99.90
10968;DHT22;5536;49.602;10.980;2023-07-13T07:12:35;21.50;99.90
10968;DHT22;5536;49.602;10.980;2023-07-13T07:15:03;21.40;99.90
10968;DHT22;5536;49.602;10.980;2023-07-13T07:17:30;21.40;99.90
10968;DHT22;5536;49.602;10.980;2023-07-13T07:19:58;21.40;99.90
10968;DHT22;5536;49.602;10.980;2023-07-13T07:22:25;21.30;99.90
10968;DHT22;5536;49.602;10.980;2023-07-13T07:24:53;21.30;99.90
10968;DHT22;5536;49.602;10.980;2023-07-13T07:27:20;21.50;99.90
10968;DHT22;5536;49.602;10.980;2023-07-13T07:29:47;21.60;99.90
10968;DHT22;5536;49.602;10.980;2023-07-13T07:32:13;21.80;99.90
10968;DHT22;5536;49.602;10.980;2023-07-13T07:34:40;21.90;99.90
10968;DHT22;5536;49.602;10.980;2023-07-13T07:37:11;21.70;99.90
10968;DHT22;5536;49.602;10.980;2023-07-13T07:39:39;21.80;99.90
10968;DHT22;5536;49.602;10.980;2023-07-13T07:42:06;21.80;99.90
10968;DHT22;5536;49.602;10.980;2023-07-13T07:44:34;21.70;99.90
10968;DHT22;5536;49.602;10.980;2023-07-13T07:47:01;21.80;99.90
10968;DHT22;5536;49.602;10.980;2023-07-13T07:49:28;21.70;99.90
10968;DHT22;5536;49.602;10.980;2023-07-13T07:51:54;21.70;99.90
10968;DHT22;5536;49.602;10.980;2023-07-13T07:54:23;21.90;99.90
10968;DHT22;5536;49.602;10.980;2023-07-13T07:56:50;22.20;99.90
10968;DHT22;5536;49.602;10.980;2023-07-13T07:59:17;22.20;99.90
10968;DHT22;5536;49.602;10.980;2023-07-13T08:01:43;22.30;99.90
10968;DHT22;5536;49.602;10.980;2023-07-13T08:04:12;22.30;99.90
10968;DHT22;5536;49.602;10.980;2023-07-13T08:06:38;22.20;99.90
10968;DHT22;5536;49.602;10.980;2023-07-13T08:09:06;22.00;99.90
10968;DHT22;5536;49.602;10.980;2023-07-13T08:11:35;21.80;99.90
10968;DHT22;5536;49.602;10.980;2023-07-13T08:14:02;21.60;99.90
10968;DHT22;5536;49.602;10.980;2023-07-13T08:16:29;21.60;99.90
10968;DHT22;5536;49.602;10.980;2023-07-13T08:18:58;21.70;99.90
10968;DHT22;5536;49.602;10.980;2023-07-13T08:21:25;21.80;99.90
10968;DHT22;5536;49.602;10.980;2023-07-13T08:23:52;21.80;99.90
10968;DHT22;5536;49.602;10.980;2023-07-13T08:26:19;22.00;99.90
10968;DHT22;5536;49.602;10.980;2023-07-13T08:28:48;22.20;99.90
10968;DHT22;5536;49.602;10.980;2023-07-13T08:31:15;22.40;99.90
10968;DHT22;5536;49.602;10.980;2023-07-13T08:33:42;22.20;99.90
10968;DHT22;5536;49.602;10.980;2023-07-13T08:36:09;22.00;99.90
10968;DHT22;5536;49.602;10.980;2023-07-13T08:38:36;22.00;99.90
10968;DHT22;5536;49.602;10.980;2023-07-13T08:41:12;22.00;99.90
10968;DHT22;5536;49.602;10.980;2023-07-13T08:43:39;22.00;99.90
10968;DHT22;5536;49.602;10.980;2023-07-13T08:46:12;22.20;99.90
10968;DHT22;5536;49.602;10.980;2023-07-13T08:48:43;22.40;99.90
10968;DHT22;5536;49.602;10.980;2023-07-13T08:51:22;22.70;99.90
10968;DHT22;5536;49.602;10.980;2023-07-13T08:53:55;22.50;99.90
10968;DHT22;5536;49.602;10.980;2023-07-13T08:56:24;22.40;99.90
10968;DHT22;5536;49.602;10.980;2023-07-13T08:58:55;22.50;99.90
10968;DHT22;5536;49.602;10.980;2023-07-13T09:01:29;22.50;99.90
10968;DHT22;5536;49.602;10.980;2023-07-13T09:04:03;22.70;99.90
10968;DHT22;5536;49.602;10.980;2023-07-13T09:06:46;22.90;99.90
10968;DHT22;5536;49.602;10.980;2023-07-13T09:09:21;23.00;99.90
10968;DHT22;5536;49.602;10.980;2023-07-13T09:11:55;23.10;99.90
10968;DHT22;5536;49.602;10.980;2023-07-13T09:14:42;23.00;99.90
10968;DHT22;5536;49.602;10.980;2023-07-13T09:17:17;23.10;99.90
10968;DHT22;5536;49.602;10.980;2023-07-13T09:19:48;23.10;99.90
10968;DHT22;5536;49.602;10.980;2023-07-13T09:22:19;23.10;99.90
10968;DHT22;5536;49.602;10.980;2023-07-13T09:24:58;23.00;99.90
10968;DHT22;5536;49.602;10.980;2023-07-13T09:27:30;22.90;99.90
10968;DHT22;5536;49.602;10.980;2023-07-13T09:30:08;22.90;99.90
10968;DHT22;5536;49.602;10.980;2023-07-13T09:32:39;22.70;99.90
10968;DHT22;5536;49.602;10.980;2023-07-13T09:35:11;22.80;99.90
10968;DHT22;5536;49.602;10.980;2023-07-13T09:37:39;22.90;99.90
10968;DHT22;5536;49.602;10.980;2023-07-13T09:40:13;23.00;99.90
10968;DHT22;5536;49.602;10.980;2023-07-13T09:42:42;22.90;99.90
10968;DHT22;5536;49.602;10.980;2023-07-13T09:45:09;23.10;99.90
10968;DHT22;5536;49.602;10.980;2023-07-13T09:47:40;23.10;99.90
10968;DHT22;5536;49.602;10.980;2023-07-13T09:50:14;23.20;99.90
10968;DHT22;5536;49.602;10.980;2023-07-13T09:52:44;23.00;99.90
10968;DHT22;5536;49.602;10.980;2023-07-13T09:55:26;23.30;99.90
10968;DHT22;5536;49.602;10.980;2023-07-13T09:57:53;23.40;99.90
10968;DHT22;5536;49.602;10.980;2023-07-13T10:00:22;23.90;99.90
10968;DHT22;5536;49.602;10.980;2023-07-13T10:03:00;23.80;99.90
10968;DHT22;5536;49.602;10.980;2023-07-13T10:05:37;23.80;99.90
10968;DHT22;5536;49.602;10.980;2023-07-13T10:08:04;23.90;99.90
10968;DHT22;5536;49.602;10.980;2023-07-13T10:10:33;24.20;99.90
10968;DHT22;5536;49.602;10.980;2023-07-13T10:13:02;24.00;99.90
10968;DHT22;5536;49.602;10.980;2023-07-13T10:15:31;23.80;99.90
10968;DHT22;5536;49.602;10.980;2023-07-13T10:18:01;24.00;99.90
10968;DHT22;5536;49.602;10.980;2023-07-13T10:20:28;24.10;99.90
10968;DHT22;5536;49.602;10.980;2023-07-13T10:22:58;24.50;99.90
10968;DHT22;5536;49.602;10.980;2023-07-13T10:25:30;24.30;99.90
10968;DHT22;5536;49.602;10.980;2023-07-13T10:28:02;24.50;99.90
10968;DHT22;5536;49.602;10.980;2023-07-13T10:30:34;24.10;99.90
10968;DHT22;5536;49.602;10.980;2023-07-13T10:33:08;24.00;99.90
10968;DHT22;5536;49.602;10.980;2023-07-13T10:35:37;24.20;99.90
10968;DHT22;5536;49.602;10.980;2023-07-13T10:38:07;24.70;99.90
10968;DHT22;5536;49.602;10.980;2023-07-13T10:40:38;24.70;99.90
10968;DHT22;5536;49.602;10.980;2023-07-13T10:43:11;24.10;99.90
10968;DHT22;5536;49.602;10.980;2023-07-13T10:45:41;24.20;99.90
10968;DHT22;5536;49.602;10.980;2023-07-13T10:48:13;25.00;99.90
10968;DHT22;5536;49.602;10.980;2023-07-13T10:50:44;25.30;99.90
10968;DHT22;5536;49.602;10.980;2023-07-13T10:53:19;25.50;99.90
10968;DHT22;5536;49.602;10.980;2023-07-13T10:55:58;25.40;99.90
10968;DHT22;5536;49.602;10.980;2023-07-13T10:58:31;25.30;99.90
10968;DHT22;5536;49.602;10.980;2023-07-13T11:01:06;25.30;99.90
10968;DHT22;5536;49.602;10.980;2023-07-13T11:03:38;25.20;99.90
10968;DHT22;5536;49.602;10.980;2023-07-13T11:06:16;25.10;99.90
10968;DHT22;5536;49.602;10.980;2023-07-13T11:08:53;25.00;99.90
10968;DHT22;5536;49.602;10.980;2023-07-13T11:11:38;25.10;99.90
10968;DHT22;5536;49.602;10.980;2023-07-13T11:14:25;25.60;99.90
10968;DHT22;5536;49.602;10.980;2023-07-13T11:16:52;26.40;99.90
10968;DHT22;5536;49.602;10.980;2023-07-13T11:19:40;26.90;99.90
10968;DHT22;5536;49.602;10.980;2023-07-13T11:22:16;26.50;99.90
10968;DHT22;5536;49.602;10.980;2023-07-13T11:24:58;25.80;99.90
10968;DHT22;5536;49.602;10.980;2023-07-13T11:27:35;25.50;99.90
10968;DHT22;5536;49.602;10.980;2023-07-13T11:30:21;26.00;99.90
10968;DHT22;5536;49.602;10.980;2023-07-13T11:33:03;26.60;99.90
10968;DHT22;5536;49.602;10.980;2023-07-13T11:35:36;26.80;99.90
10968;DHT22;5536;49.602;10.980;2023-07-13T11:38:12;26.00;99.90
10968;DHT22;5536;49.602;10.980;2023-07-13T11:40:41;25.90;99.90
10968;DHT22;5536;49.602;10.980;2023-07-13T11:43:13;26.10;99.90
10968;DHT22;5536;49.602;10.980;2023-07-13T11:45:40;26.30;99.90
10968;DHT22;5536;49.602;10.980;2023-07-13T11:48:18;26.40;99.90
10968;DHT22;5536;49.602;10.980;2023-07-13T11:50:53;26.50;99.90
10968;DHT22;5536;49.602;10.980;2023-07-13T11:53:21;26.10;99.90
10968;DHT22;5536;49.602;10.980;2023-07-13T11:55:48;26.50;99.90
10968;DHT22;5536;49.602;10.980;2023-07-13T11:58:21;26.90;99.90
10968;DHT22;5536;49.602;10.980;2023-07-13T12:00:51;26.60;99.90
10968;DHT22;5536;49.602;10.980;2023-07-13T12:03:21;26.10;99.90
10968;DHT22;5536;49.602;10.980;2023-07-13T12:05:59;25.90;99.90
10968;DHT22;5536;49.602;10.980;2023-07-13T12:08:27;26.50;99.90
10968;DHT22;5536;49.602;10.980;2023-07-13T12:11:02;26.80;99.90
10968;DHT22;5536;49.602;10.980;2023-07-13T12:13:35;26.00;99.90
10968;DHT22;5536;49.602;10.980;2023-07-13T12:16:12;25.60;99.90
10968;DHT22;5536;49.602;10.980;2023-07-13T12:18:42;25.40;99.90
10968;DHT22;5536;49.602;10.980;2023-07-13T12:21:16;26.10;99.90
10968;DHT22;5536;49.602;10.980;2023-07-13T12:23:45;26.90;99.90
10968;DHT22;5536;49.602;10.980;2023-07-13T12:26:15;27.30;99.90
10968;DHT22;5536;49.602;10.980;2023-07-13T12:28:46;27.10;99.90
10968;DHT22;5536;49.602;10.980;2023-07-13T12:31:25;27.20;99.90
10968;DHT22;5536;49.602;10.980;2023-07-13T12:34:00;27.70;99.90
10968;DHT22;5536;49.602;10.980;2023-07-13T12:36:33;27.60;99.90
10968;DHT22;5536;49.602;10.980;2023-07-13T12:39:04;27.10;99.90
10968;DHT22;5536;49.602;10.980;2023-07-13T12:41:37;27.30;99.90
10968;DHT22;5536;49.602;10.980;2023-07-13T12:44:07;27.30;99.90
10968;DHT22;5536;49.602;10.980;2023-07-13T12:46:34;26.80;99.90
10968;DHT22;5536;49.602;10.980;2023-07-13T12:49:05;26.70;99.90
10968;DHT22;5536;49.602;10.980;2023-07-13T12:51:34;26.90;99.90
10968;DHT22;5536;49.602;10.980;2023-07-13T12:54:11;27.90;99.90
10968;DHT22;5536;49.602;10.980;2023-07-13T12:56:39;28.20;99.90
10968;DHT22;5536;49.602;10.980;2023-07-13T12:59:16;27.80;99.90
10968;DHT22;5536;49.602;10.980;2023-07-13T13:01:44;27.10;99.90
10968;DHT22;5536;49.602;10.980;2023-07-13T13:04:11;27.10;99.90
10968;DHT22;5536;49.602;10.980;2023-07-13T13:06:40;27.10;99.90
10968;DHT22;5536;49.602;10.980;2023-07-13T13:09:12;27.10;99.90
10968;DHT22;5536;49.602;10.980;2023-07-13T13:11:39;27.30;99.90
10968;DHT22;5536;49.602;10.980;2023-07-13T13:14:06;27.40;99.90
10968;DHT22;5536;49.602;10.980;2023-07-13T13:16:35;27.70;99.90
10968;DHT22;5536;49.602;10.980;2023-07-13T13:19:13;27.00;99.90
10968;DHT22;5536;49.602;10.980;2023-07-13T13:21:43;27.00;99.90
10968;DHT22;5536;49.602;10.980;2023-07-13T13:24:11;28.60;99.90
10968;DHT22;5536;49.602;10.980;2023-07-13T13:26:39;29.30;99.90
10968;DHT22;5536;49.602;10.980;2023-07-13T13:29:15;28.90;99.90
10968;DHT22;5536;49.602;10.980;2023-07-13T13:31:42;28.40;99.90
10968;DHT22;5536;49.602;10.980;2023-07-13T13:34:10;28.00;99.90
10968;DHT22;5536;49.602;10.980;2023-07-13T13:36:38;27.40;99.90
10968;DHT22;5536;49.602;10.980;2023-07-13T13:39:18;27.10;99.90
10968;DHT22;5536;49.602;10.980;2023-07-13T13:41:45;27.00;99.90
10968;DHT22;5536;49.602;10.980;2023-07-13T13:44:14;26.80;99.90
10968;DHT22;5536;49.602;10.980;2023-07-13T13:46:42;26.90;99.90
10968;DHT22;5536;49.602;10.980;2023-07-13T13:49:13;28.50;99.90
10968;DHT22;5536;49.602;10.980;2023-07-13T13:51:41;29.10;99.90
10968;DHT22;5536;49.602;10.980;2023-07-13T13:54:12;29.50;99.90
10968;DHT22;5536;49.602;10.980;2023-07-13T13:56:41;29.10;99.90
10968;DHT22;5536;49.602;10.980;2023-07-13T13:59:08;28.60;99.90
10968;DHT22;5536;49.602;10.980;2023-07-13T14:01:35;28.20;99.90
10968;DHT22;5536;49.602;10.980;2023-07-13T14:04:03;28.30;99.90
10968;DHT22;5536;49.602;10.980;2023-07-13T14:06:31;29.60;99.90
10968;DHT22;5536;49.602;10.980;2023-07-13T14:08:58;29.60;99.90
10968;DHT22;5536;49.602;10.980;2023-07-13T14:11:26;28.70;99.90
10968;DHT22;5536;49.602;10.980;2023-07-13T14:13:56;27.80;99.90
10968;DHT22;5536;49.602;10.980;2023-07-13T14:16:28;26.90;99.90
10968;DHT22;5536;49.602;10.980;2023-07-13T14:18:55;26.70;99.90
10968;DHT22;5536;49.602;10.980;2023-07-13T14:21:24;28.30;99.90
10968;DHT22;5536;49.602;10.980;2023-07-13T14:23:51;28.40;99.90
10968;DHT22;5536;49.602;10.980;2023-07-13T14:26:19;28.70;99.90
10968;DHT22;5536;49.602;10.980;2023-07-13T14:28:49;28.00;99.90
10968;DHT22;5536;49.602;10.980;2023-07-13T14:31:17;27.50;99.90
10968;DHT22;5536;49.602;10.980;2023-07-13T14:33:44;27.30;99.90
10968;DHT22;5536;49.602;10.980;2023-07-13T14:36:26;27.70;99.90
10968;DHT22;5536;49.602;10.980;2023-07-13T14:38:53;29.00;99.90
10968;DHT22;5536;49.602;10.980;2023-07-13T14:41:20;28.10;99.90
10968;DHT22;5536;49.602;10.980;2023-07-13T14:43:49;28.20;99.90
10968;DHT22;5536;49.602;10.980;2023-07-13T14:46:27;29.30;99.90
10968;DHT22;5536;49.602;10.980;2023-07-13T14:49:00;29.30;99.90
10968;DHT22;5536;49.602;10.980;2023-07-13T14:51:27;28.80;99.90
10968;DHT22;5536;49.602;10.980;2023-07-13T14:53:54;29.10;99.90
10968;DHT22;5536;49.602;10.980;2023-07-13T14:56:21;28.50;99.90
10968;DHT22;5536;49.602;10.980;2023-07-13T14:58:49;28.00;99.90
10968;DHT22;5536;49.602;10.980;2023-07-13T15:01:19;27.40;99.90
10968;DHT22;5536;49.602;10.980;2023-07-13T15:03:49;27.80;99.90
10968;DHT22;5536;49.602;10.980;2023-07-13T15:06:16;28.40;99.90
10968;DHT22;5536;49.602;10.980;2023-07-13T15:08:45;28.50;99.90
10968;DHT22;5536;49.602;10.980;2023-07-13T15:11:12;29.50;99.90
10968;DHT22;5536;49.602;10.980;2023-07-13T15:13:40;30.00;99.90
10968;DHT22;5536;49.602;10.980;2023-07-13T15:16:15;30.20;99.90
10968;DHT22;5536;49.602;10.980;2023-07-13T15:18:44;29.70;99.90
10968;DHT22;5536;49.602;10.980;2023-07-13T15:21:14;30.10;99.90
10968;DHT22;5536;49.602;10.980;2023-07-13T15:23:43;29.10;99.90
10968;DHT22;5536;49.602;10.980;2023-07-13T15:26:12;28.70;99.90
10968;DHT22;5536;49.602;10.980;2023-07-13T15:28:41;28.90;99.90
10968;DHT22;5536;49.602;10.980;2023-07-13T15:31:19;28.90;99.90
10968;DHT22;5536;49.602;10.980;2023-07-13T15:33:47;28.00;99.90
10968;DHT22;5536;49.602;10.980;2023-07-13T15:36:16;27.60;99.90
10968;DHT22;5536;49.602;10.980;2023-07-13T15:38:43;27.60;99.90
10968;DHT22;5536;49.602;10.980;2023-07-13T15:41:17;27.90;99.90
10968;DHT22;5536;49.602;10.980;2023-07-13T15:43:45;28.30;99.90
10968;DHT22;5536;49.602;10.980;2023-07-13T15:46:14;27.80;99.90